Time;durP1;ratioP1;P1;durP2;ratioP2;P2;SDS_P1;SDS_P2;PMS_P1;PMS_P2;Temp;Humidity;BMP_temperature;BMP_pressure;BME280_temperature;BME280_humidity;BME280_pressure;Samples;Min_cycle;Max_cycle;Signal;HPM_P1;HPM_P2
2021/11/20 00:01:42;;;;;;;47.77;25.27;;;;;;;;;;4451124;32;20299;-54
2021/11/20 00:04:07;;;;;;;45.70;23.03;;;;;;;;;;4451384;32;20726;-55
2021/11/20 00:06:40;;;;;;;38.10;24.50;;;;;;;;;;4451390;32;20287;-55
2021/11/20 00:09:08;;;;;;;45.47;23.57;;;;;;;;;;4452350;32;20244;-54
2021/11/20 00:11:37;;;;;;;43.37;22.03;;;;;;;;;;4466819;32;20331;-57
2021/11/20 00:14:03;;;;;;;49.43;27.70;;;;;;;;;;4466696;32;20208;-55
2021/11/20 00:16:30;;;;;;;52.50;28.53;;;;;;;;;;4466590;32;20256;-56
2021/11/20 00:18:56;;;;;;;52.77;28.63;;;;;;;;;;4467125;32;20259;-55
2021/11/20 00:21:32;;;;;;;56.80;30.93;;;;;;;;;;4466417;32;20279;-55
2021/11/20 00:24:01;;;;;;;68.87;35.70;;;;;;;;;;4464609;32;20271;-54
2021/11/20 00:26:33;;;;;;;68.00;35.80;;;;;;;;;;4450841;32;20243;-55
2021/11/20 00:31:32;;;;;;;62.90;35.00;;;;;;;;;;4450675;32;20290;-55
2021/11/20 00:33:57;;;;;;;62.23;36.23;;;;;;;;;;4451208;32;20300;-55
2021/11/20 00:36:23;;;;;;;68.10;37.40;;;;;;;;;;4450844;32;20240;-56
2021/11/20 00:38:50;;;;;;;90.57;41.03;;;;;;;;;;4452242;32;20288;-56
2021/11/20 00:41:19;;;;;;;80.03;40.53;;;;;;;;;;4466100;32;20261;-55
2021/11/20 00:43:46;;;;;;;85.17;42.30;;;;;;;;;;4466132;32;20370;-54
2021/11/20 00:46:14;;;;;;;94.30;45.00;;;;;;;;;;4450671;32;20228;-54
2021/11/20 00:48:41;;;;;;;105.97;47.07;;;;;;;;;;4449374;32;20631;-55
2021/11/20 00:51:10;;;;;;;88.50;44.20;;;;;;;;;;4449391;32;20656;-55
2021/11/20 00:53:36;;;;;;;97.83;46.37;;;;;;;;;;4450359;32;20216;-55
2021/11/20 00:56:03;;;;;;;99.87;47.27;;;;;;;;;;4450595;32;20215;-55
2021/11/20 00:58:29;;;;;;;88.57;45.23;;;;;;;;;;4448984;32;20286;-55
2021/11/20 01:00:58;;;;;;;82.17;39.63;;;;;;;;;;4450670;32;20335;-55
2021/11/20 01:03:24;;;;;;;76.77;36.63;;;;;;;;;;4450699;32;20263;-56
2021/11/20 01:05:51;;;;;;;65.57;33.77;;;;;;;;;;4454758;32;20211;-55
2021/11/20 01:08:20;;;;;;;63.20;35.67;;;;;;;;;;4465816;32;20270;-54
2021/11/20 01:10:51;;;;;;;78.50;37.63;;;;;;;;;;4465962;32;20506;-55
2021/11/20 01:13:17;;;;;;;65.20;35.50;;;;;;;;;;4465861;32;20197;-55
2021/11/20 01:15:47;;;;;;;61.10;33.37;;;;;;;;;;4465348;32;20293;-55
2021/11/20 01:18:14;;;;;;;61.40;32.80;;;;;;;;;;4464524;32;20236;-55
2021/11/20 01:20:41;;;;;;;59.83;32.93;;;;;;;;;;4465477;32;20320;-56
2021/11/20 01:23:07;;;;;;;70.93;32.37;;;;;;;;;;4464383;32;20266;-55
2021/11/20 01:25:33;;;;;;;62.57;31.67;;;;;;;;;;4463742;32;20291;-54
2021/11/20 01:27:59;;;;;;;60.90;33.10;;;;;;;;;;4465685;32;20381;-54
2021/11/20 01:30:24;;;;;;;63.33;33.97;;;;;;;;;;4459785;32;20628;-55
2021/11/20 01:32:50;;;;;;;62.50;31.93;;;;;;;;;;4460056;32;20746;-55
2021/11/20 01:35:16;;;;;;;58.37;33.20;;;;;;;;;;4465754;32;20286;-56
2021/11/20 01:37:43;;;;;;;57.93;33.33;;;;;;;;;;4465662;32;20240;-55
2021/11/20 01:40:11;;;;;;;54.13;30.23;;;;;;;;;;4465510;32;20300;-55
2021/11/20 01:42:37;;;;;;;77.30;37.43;;;;;;;;;;4465108;32;20252;-55
2021/11/20 01:45:05;;;;;;;69.03;34.10;;;;;;;;;;4465192;32;20304;-55
2021/11/20 01:47:54;;;;;;;60.00;30.70;;;;;;;;;;4465493;32;20284;-54
2021/11/20 01:50:41;;;;;;;51.87;29.83;;;;;;;;;;4465140;32;20228;-55
2021/11/20 01:53:25;;;;;;;45.80;26.90;;;;;;;;;;4464824;32;20301;-55
2021/11/20 01:56:02;;;;;;;57.63;28.33;;;;;;;;;;4465823;32;20561;-55
2021/11/20 01:58:37;;;;;;;52.33;27.90;;;;;;;;;;4465456;32;20283;-54
2021/11/20 02:01:27;;;;;;;70.00;32.40;;;;;;;;;;4465392;32;20223;-54
2021/11/20 02:04:12;;;;;;;57.90;31.90;;;;;;;;;;4449805;32;20242;-54
2021/11/20 02:07:04;;;;;;;60.57;33.00;;;;;;;;;;4449727;32;20270;-55
2021/11/20 02:09:40;;;;;;;54.57;30.13;;;;;;;;;;4448039;32;20232;-54
2021/11/20 02:12:14;;;;;;;49.43;28.33;;;;;;;;;;4449574;32;20974;-55
2021/11/20 02:14:41;;;;;;;54.37;27.87;;;;;;;;;;4448660;32;20767;-54
2021/11/20 02:17:06;;;;;;;48.03;27.37;;;;;;;;;;4448954;32;20708;-54
2021/11/20 02:19:36;;;;;;;46.37;24.47;;;;;;;;;;4447953;32;20303;-55
2021/11/20 02:22:10;;;;;;;61.70;30.17;;;;;;;;;;4449260;32;20341;-55
2021/11/20 02:24:35;;;;;;;41.67;23.73;;;;;;;;;;4449897;32;20625;-55
2021/11/20 02:27:06;;;;;;;41.90;23.47;;;;;;;;;;4449198;32;20354;-54
2021/11/20 02:29:42;;;;;;;41.43;24.07;;;;;;;;;;4448963;32;20573;-54
2021/11/20 02:32:08;;;;;;;50.77;25.63;;;;;;;;;;4448106;32;20232;-55
2021/11/20 02:34:34;;;;;;;41.03;23.80;;;;;;;;;;4448977;32;20357;-56
2021/11/20 02:37:00;;;;;;;57.60;26.57;;;;;;;;;;4449311;32;20253;-55
2021/11/20 02:39:29;;;;;;;60.67;26.03;;;;;;;;;;4449211;32;20291;-57
2021/11/20 02:41:59;;;;;;;52.97;25.43;;;;;;;;;;4450005;32;20678;-55
2021/11/20 02:44:27;;;;;;;59.77;27.27;;;;;;;;;;4464445;32;20286;-55
2021/11/20 02:46:59;;;;;;;47.90;25.90;;;;;;;;;;4464391;32;20612;-54
2021/11/20 02:49:26;;;;;;;57.17;26.67;;;;;;;;;;4464297;32;20255;-55
2021/11/20 02:51:56;;;;;;;35.67;19.33;;;;;;;;;;4464516;32;20240;-55
2021/11/20 02:54:24;;;;;;;34.07;17.70;;;;;;;;;;4464364;32;20292;-54
2021/11/20 02:56:54;;;;;;;37.97;18.40;;;;;;;;;;4458911;32;20284;-54
2021/11/20 02:59:20;;;;;;;31.20;15.67;;;;;;;;;;4459188;32;20216;-55
2021/11/20 03:01:47;;;;;;;25.80;15.80;;;;;;;;;;4464455;32;20274;-56
2021/11/20 03:04:17;;;;;;;31.73;16.03;;;;;;;;;;4465308;32;20212;-56
2021/11/20 03:06:43;;;;;;;29.30;15.73;;;;;;;;;;4466146;32;20599;-55
2021/11/20 03:09:11;;;;;;;24.33;14.77;;;;;;;;;;4467640;32;20287;-54
2021/11/20 03:11:37;;;;;;;22.43;15.00;;;;;;;;;;4467556;32;20255;-55
2021/11/20 03:14:05;;;;;;;26.03;14.37;;;;;;;;;;4467345;32;20242;-57
2021/11/20 03:16:36;;;;;;;26.90;16.47;;;;;;;;;;4467068;32;20635;-55
2021/11/20 03:19:01;;;;;;;27.50;15.07;;;;;;;;;;4467673;32;20705;-55
2021/11/20 03:21:27;;;;;;;26.80;16.07;;;;;;;;;;4465954;32;20240;-54
2021/11/20 03:23:56;;;;;;;29.83;17.90;;;;;;;;;;4464885;32;20644;-55
2021/11/20 03:26:21;;;;;;;31.13;19.27;;;;;;;;;;4451160;32;20250;-54
2021/11/20 03:28:47;;;;;;;47.43;22.60;;;;;;;;;;4459161;32;20335;-54
2021/11/20 03:31:12;;;;;;;37.13;23.37;;;;;;;;;;4467008;32;20231;-55
2021/11/20 03:33:38;;;;;;;42.40;22.33;;;;;;;;;;4467339;32;20283;-56
2021/11/20 03:36:04;;;;;;;46.27;24.27;;;;;;;;;;4467246;32;20296;-54
2021/11/20 03:38:29;;;;;;;48.13;25.80;;;;;;;;;;4467273;32;20767;-54
2021/11/20 03:40:56;;;;;;;42.00;27.33;;;;;;;;;;4467448;32;20686;-54
2021/11/20 03:43:21;;;;;;;43.87;26.73;;;;;;;;;;4467357;32;20634;-56
2021/11/20 03:45:47;;;;;;;45.63;26.10;;;;;;;;;;4467414;32;20270;-54
2021/11/20 03:48:13;;;;;;;57.40;31.20;;;;;;;;;;4467255;32;20251;-55
2021/11/20 03:50:40;;;;;;;66.13;33.77;;;;;;;;;;4467062;32;20297;-55
2021/11/20 03:53:06;;;;;;;59.47;32.97;;;;;;;;;;4467145;32;20682;-55
2021/11/20 03:55:35;;;;;;;62.33;34.13;;;;;;;;;;4467141;32;20282;-56
2021/11/20 03:58:00;;;;;;;58.77;33.90;;;;;;;;;;4453878;32;20224;-54
2021/11/20 04:00:30;;;;;;;57.43;32.97;;;;;;;;;;4451151;32;20275;-55
2021/11/20 04:02:56;;;;;;;55.97;32.37;;;;;;;;;;4451325;32;20236;-54
2021/11/20 04:05:22;;;;;;;59.10;34.40;;;;;;;;;;4450054;32;20299;-56
2021/11/20 04:07:49;;;;;;;61.77;34.50;;;;;;;;;;4451242;32;20247;-55
2021/11/20 04:10:17;;;;;;;65.23;35.00;;;;;;;;;;4456671;32;20305;-55
2021/11/20 04:12:43;;;;;;;74.30;41.60;;;;;;;;;;4466641;32;20324;-54
2021/11/20 04:15:12;;;;;;;72.73;41.47;;;;;;;;;;4466494;32;20274;-55
2021/11/20 04:17:38;;;;;;;78.17;38.57;;;;;;;;;;4466210;32;20258;-55
2021/11/20 04:20:07;;;;;;;74.57;37.50;;;;;;;;;;4466795;32;20642;-55
2021/11/20 04:22:32;;;;;;;82.17;38.27;;;;;;;;;;4466466;32;20296;-55
2021/11/20 04:24:58;;;;;;;89.80;39.13;;;;;;;;;;4457826;32;20279;-55
2021/11/20 04:27:23;;;;;;;66.67;30.87;;;;;;;;;;4451066;32;20311;-55
2021/11/20 04:29:49;;;;;;;51.67;27.37;;;;;;;;;;4451124;32;20276;-54
2021/11/20 04:32:15;;;;;;;47.43;27.50;;;;;;;;;;4449728;32;20240;-54
2021/11/20 04:34:40;;;;;;;47.70;27.07;;;;;;;;;;4451075;32;20296;-55
2021/11/20 04:37:07;;;;;;;49.23;26.43;;;;;;;;;;4451280;32;20225;-55
2021/11/20 04:39:34;;;;;;;57.67;34.03;;;;;;;;;;4450805;32;20335;-56
2021/11/20 04:41:59;;;;;;;57.37;34.90;;;;;;;;;;4452338;32;20303;-55
2021/11/20 04:44:25;;;;;;;65.93;40.47;;;;;;;;;;4466464;32;20266;-56
2021/11/20 04:46:50;;;;;;;57.60;31.87;;;;;;;;;;4465213;32;20240;-55
2021/11/20 04:49:16;;;;;;;41.70;25.93;;;;;;;;;;4466277;32;20290;-56
2021/11/20 04:51:42;;;;;;;38.53;21.57;;;;;;;;;;4466174;32;20304;-55
2021/11/20 04:54:07;;;;;;;47.60;23.90;;;;;;;;;;4465167;32;20766;-56
2021/11/20 04:56:33;;;;;;;39.10;22.40;;;;;;;;;;4466078;32;20548;-54
2021/11/20 04:58:58;;;;;;;52.97;25.20;;;;;;;;;;4464757;32;20326;-55
2021/11/20 05:01:26;;;;;;;46.37;25.03;;;;;;;;;;4466202;32;20601;-56
2021/11/20 05:03:53;;;;;;;43.60;23.73;;;;;;;;;;4451466;32;20204;-55
2021/11/20 05:06:21;;;;;;;42.67;21.90;;;;;;;;;;4449204;32;20236;-54
2021/11/20 05:08:47;;;;;;;38.73;20.90;;;;;;;;;;4450835;32;20535;-56
2021/11/20 05:11:13;;;;;;;42.33;20.87;;;;;;;;;;4450450;32;20224;-54
2021/11/20 05:13:38;;;;;;;45.37;26.97;;;;;;;;;;4450481;32;20283;-55
2021/11/20 05:16:04;;;;;;;48.20;26.07;;;;;;;;;;4450795;32;20250;-55
2021/11/20 05:18:30;;;;;;;44.43;24.80;;;;;;;;;;4448916;32;20307;-55
2021/11/20 05:21:01;;;;;;;41.10;24.33;;;;;;;;;;4455804;32;20758;-55
2021/11/20 05:23:29;;;;;;;43.33;28.40;;;;;;;;;;4466166;32;20230;-55
2021/11/20 05:25:55;;;;;;;62.30;32.50;;;;;;;;;;4465247;32;20717;-55
2021/11/20 05:28:21;;;;;;;61.87;35.53;;;;;;;;;;4465313;32;20313;-56
2021/11/20 05:30:49;;;;;;;74.90;38.63;;;;;;;;;;4466179;32;20283;-55
2021/11/20 05:33:43;;;;;;;77.50;38.57;;;;;;;;;;4465552;32;20301;-55
2021/11/20 05:36:11;;;;;;;73.40;37.23;;;;;;;;;;4465469;32;20236;-55
2021/11/20 05:38:36;;;;;;;70.93;40.60;;;;;;;;;;4465650;32;20262;-55
2021/11/20 05:41:03;;;;;;;66.83;38.33;;;;;;;;;;4465589;32;20541;-55
2021/11/20 05:43:28;;;;;;;82.17;40.47;;;;;;;;;;4465144;32;20208;-56
2021/11/20 05:46:02;;;;;;;74.77;39.20;;;;;;;;;;4465096;32;20325;-56
2021/11/20 05:48:27;;;;;;;72.70;41.83;;;;;;;;;;4464930;32;20259;-56
2021/11/20 05:50:53;;;;;;;72.73;39.60;;;;;;;;;;4464627;32;20327;-54
2021/11/20 05:53:22;;;;;;;67.67;36.70;;;;;;;;;;4463635;32;20294;-56
2021/11/20 05:55:49;;;;;;;64.07;34.73;;;;;;;;;;4465288;32;20616;-54
2021/11/20 05:58:16;;;;;;;62.87;31.57;;;;;;;;;;4450497;32;20335;-54
2021/11/20 06:00:44;;;;;;;54.13;30.53;;;;;;;;;;4449534;32;20626;-54
2021/11/20 06:03:10;;;;;;;62.83;34.73;;;;;;;;;;4449745;32;20223;-55
2021/11/20 06:05:37;;;;;;;63.17;30.70;;;;;;;;;;4449688;32;20306;-54
2021/11/20 06:08:04;;;;;;;70.70;33.87;;;;;;;;;;4449986;32;20585;-55
2021/11/20 06:10:30;;;;;;;60.97;31.90;;;;;;;;;;4449509;32;20291;-59
2021/11/20 06:12:56;;;;;;;68.43;37.03;;;;;;;;;;4448268;32;20232;-55
2021/11/20 06:15:23;;;;;;;81.30;40.07;;;;;;;;;;4449392;32;20326;-54
2021/11/20 06:17:48;;;;;;;97.63;49.73;;;;;;;;;;4460449;32;20228;-54
2021/11/20 06:20:14;;;;;;;107.57;57.70;;;;;;;;;;4463895;32;20365;-56
2021/11/20 06:22:40;;;;;;;97.70;52.17;;;;;;;;;;4463731;32;20231;-55
2021/11/20 06:25:08;;;;;;;104.27;55.47;;;;;;;;;;4454115;32;20367;-55
2021/11/20 06:27:33;;;;;;;104.30;56.57;;;;;;;;;;4449069;32;20240;-55
2021/11/20 06:30:00;;;;;;;102.03;58.13;;;;;;;;;;4450029;32;20414;-56
2021/11/20 06:32:26;;;;;;;92.20;59.10;;;;;;;;;;4453221;32;20288;-55
2021/11/20 06:34:53;;;;;;;79.70;47.13;;;;;;;;;;4449462;32;20280;-55
2021/11/20 06:37:19;;;;;;;71.30;35.73;;;;;;;;;;4449343;32;20251;-55
2021/11/20 06:39:44;;;;;;;74.97;36.53;;;;;;;;;;4449989;32;20327;-56
2021/11/20 06:42:10;;;;;;;81.30;37.87;;;;;;;;;;4454745;32;20700;-55
2021/11/20 06:44:36;;;;;;;72.40;37.80;;;;;;;;;;4467619;32;20278;-55
2021/11/20 06:47:02;;;;;;;71.03;39.20;;;;;;;;;;4468385;32;20228;-55
2021/11/20 06:49:27;;;;;;;72.00;39.10;;;;;;;;;;4468053;32;20335;-55
2021/11/20 06:51:53;;;;;;;80.60;39.77;;;;;;;;;;4468285;32;20235;-55
2021/11/20 06:54:18;;;;;;;76.30;34.53;;;;;;;;;;4466650;32;20675;-55
2021/11/20 06:56:52;;;;;;;51.13;30.70;;;;;;;;;;4452315;32;20311;-55
2021/11/20 07:01:48;;;;;;;46.63;29.20;;;;;;;;;;4452374;32;20714;-55
2021/11/20 07:04:19;;;;;;;57.53;31.13;;;;;;;;;;4452687;32;20298;-54
2021/11/20 07:06:54;;;;;;;75.00;46.53;;;;;;;;;;4452518;32;20307;-55
2021/11/20 07:09:21;;;;;;;72.07;41.57;;;;;;;;;;4452065;32;20594;-55
2021/11/20 07:11:47;;;;;;;76.63;38.53;;;;;;;;;;4452245;32;20290;-54
2021/11/20 07:14:13;;;;;;;73.37;39.17;;;;;;;;;;4464144;32;20647;-55
2021/11/20 07:16:40;;;;;;;72.60;42.60;;;;;;;;;;4468062;32;20243;-54
2021/11/20 07:19:06;;;;;;;67.60;39.10;;;;;;;;;;4466707;32;20232;-55
2021/11/20 07:21:31;;;;;;;64.60;35.67;;;;;;;;;;4467683;32;20554;-55
2021/11/20 07:24:02;;;;;;;77.77;41.27;;;;;;;;;;4467663;32;20370;-55
2021/11/20 07:26:28;;;;;;;70.70;36.63;;;;;;;;;;4467609;32;20252;-55
2021/11/20 07:28:55;;;;;;;56.73;33.63;;;;;;;;;;4467729;32;20314;-54
2021/11/20 07:31:21;;;;;;;49.87;27.57;;;;;;;;;;4467512;32;20236;-55
2021/11/20 07:33:46;;;;;;;63.30;39.57;;;;;;;;;;4467356;32;20220;-55
2021/11/20 07:36:12;;;;;;;69.37;38.27;;;;;;;;;;4467586;32;20439;-55
2021/11/20 07:38:45;;;;;;;65.00;38.63;;;;;;;;;;4468250;32;20286;-56
2021/11/20 07:41:10;;;;;;;57.67;33.10;;;;;;;;;;4467192;32;20219;-55
2021/11/20 07:43:36;;;;;;;57.33;32.80;;;;;;;;;;4467642;32;20370;-55
2021/11/20 07:46:08;;;;;;;52.53;28.43;;;;;;;;;;4467588;32;20228;-55
2021/11/20 07:48:37;;;;;;;52.87;25.50;;;;;;;;;;4467778;32;20264;-55
2021/11/20 07:51:05;;;;;;;36.27;19.90;;;;;;;;;;4466155;32;20561;-56
2021/11/20 07:53:31;;;;;;;52.20;30.67;;;;;;;;;;4466214;32;20263;-55
2021/11/20 07:55:57;;;;;;;38.53;25.10;;;;;;;;;;4466977;32;20396;-55
2021/11/20 07:58:24;;;;;;;50.90;32.57;;;;;;;;;;4464148;32;20491;-58
2021/11/20 08:00:50;;;;;;;41.63;26.37;;;;;;;;;;4451599;32;20267;-55
2021/11/20 08:03:17;;;;;;;42.70;29.30;;;;;;;;;;4450934;32;20721;-55
2021/11/20 08:05:43;;;;;;;59.63;32.70;;;;;;;;;;4449819;32;20234;-55
2021/11/20 08:08:09;;;;;;;60.27;33.57;;;;;;;;;;4450548;32;20220;-54
2021/11/20 08:10:37;;;;;;;60.67;37.40;;;;;;;;;;4465919;32;20235;-56
2021/11/20 08:13:03;;;;;;;57.53;31.17;;;;;;;;;;4466129;32;20568;-55
2021/11/20 08:15:30;;;;;;;55.50;30.20;;;;;;;;;;4450756;32;20300;-55
2021/11/20 08:17:56;;;;;;;53.90;28.33;;;;;;;;;;4449889;32;20228;-56
2021/11/20 08:20:25;;;;;;;44.90;26.93;;;;;;;;;;4450857;32;20662;-56
2021/11/20 08:22:51;;;;;;;35.67;22.53;;;;;;;;;;4450928;32;20618;-56
2021/11/20 08:25:20;;;;;;;33.27;19.47;;;;;;;;;;4460485;32;20635;-55
2021/11/20 08:27:46;;;;;;;31.73;18.20;;;;;;;;;;4466770;32;20232;-55
2021/11/20 08:30:15;;;;;;;28.67;16.50;;;;;;;;;;4452798;32;20700;-56
2021/11/20 08:32:46;;;;;;;30.77;17.67;;;;;;;;;;4449661;32;20233;-55
2021/11/20 08:35:12;;;;;;;33.77;17.47;;;;;;;;;;4450763;32;20644;-55
2021/11/20 08:37:38;;;;;;;36.30;21.87;;;;;;;;;;4450543;32;20276;-54
2021/11/20 08:40:06;;;;;;;36.87;23.37;;;;;;;;;;4463584;32;20290;-56
2021/11/20 08:42:33;;;;;;;40.60;21.07;;;;;;;;;;4460849;32;20216;-57
2021/11/20 08:44:59;;;;;;;38.60;22.63;;;;;;;;;;4449036;32;20293;-54
2021/11/20 08:47:25;;;;;;;50.97;37.43;;;;;;;;;;4455415;32;20224;-55
2021/11/20 08:49:50;;;;;;;32.33;20.20;;;;;;;;;;4465540;32;20230;-56
2021/11/20 08:52:16;;;;;;;31.37;18.17;;;;;;;;;;4466083;32;20274;-55
2021/11/20 08:54:42;;;;;;;33.07;18.60;;;;;;;;;;4465966;32;20330;-54
2021/11/20 08:57:07;;;;;;;32.10;20.23;;;;;;;;;;4466048;32;20447;-55
2021/11/20 08:59:34;;;;;;;32.47;17.63;;;;;;;;;;4456465;32;20297;-56
2021/11/20 09:02:05;;;;;;;27.80;18.47;;;;;;;;;;4450126;32;20224;-56
2021/11/20 09:04:49;;;;;;;30.23;19.40;;;;;;;;;;4460092;32;20227;-56
2021/11/20 09:07:19;;;;;;;29.37;18.97;;;;;;;;;;4466153;32;20303;-56
2021/11/20 09:10:08;;;;;;;33.10;19.40;;;;;;;;;;4453652;32;20252;-55
2021/11/20 09:12:43;;;;;;;31.30;19.97;;;;;;;;;;4449823;32;20307;-55
2021/11/20 09:15:12;;;;;;;31.70;20.50;;;;;;;;;;4451091;32;20629;-55
2021/11/20 09:17:38;;;;;;;29.37;19.23;;;;;;;;;;4450488;32;20221;-55
2021/11/20 09:20:05;;;;;;;32.97;21.07;;;;;;;;;;4450258;32;20284;-56
2021/11/20 09:22:31;;;;;;;30.00;19.03;;;;;;;;;;4450500;32;20235;-55
2021/11/20 09:24:57;;;;;;;28.37;18.00;;;;;;;;;;4456820;32;20763;-57
2021/11/20 09:27:24;;;;;;;34.93;22.57;;;;;;;;;;4465361;32;20216;-53
2021/11/20 09:29:50;;;;;;;29.00;19.40;;;;;;;;;;4454118;32;20204;-51
2021/11/20 09:32:15;;;;;;;64.13;40.63;;;;;;;;;;4455349;32;20315;-54
2021/11/20 09:34:41;;;;;;;24.53;14.17;;;;;;;;;;4454687;32;20750;-53
2021/11/20 09:37:07;;;;;;;23.47;14.50;;;;;;;;;;4449564;32;20221;-52
2021/11/20 09:39:36;;;;;;;18.37;12.33;;;;;;;;;;4449585;32;20346;-55
2021/11/20 09:42:33;;;;;;;15.07;9.90;;;;;;;;;;4451095;32;20291;-54
2021/11/20 09:45:05;;;;;;;13.87;8.97;;;;;;;;;;4451393;32;20213;-52
2021/11/20 09:47:36;;;;;;;16.33;9.17;;;;;;;;;;4449433;32;20248;-53
2021/11/20 09:50:16;;;;;;;17.13;11.10;;;;;;;;;;4459954;32;20239;-53
2021/11/20 09:52:43;;;;;;;19.67;12.00;;;;;;;;;;4463720;32;20638;-53
2021/11/20 09:55:15;;;;;;;19.70;12.40;;;;;;;;;;4448866;32;20546;-53
2021/11/20 09:58:09;;;;;;;19.10;12.80;;;;;;;;;;4447163;32;20592;-54
2021/11/20 10:00:56;;;;;;;27.63;16.47;;;;;;;;;;4447794;32;20348;-54
2021/11/20 10:04:08;;;;;;;32.60;18.10;;;;;;;;;;4463785;32;20196;-53
2021/11/20 10:06:44;;;;;;;19.43;11.53;;;;;;;;;;4465425;32;20295;-53
2021/11/20 10:09:19;;;;;;;17.17;12.00;;;;;;;;;;4465410;32;20215;-52
2021/11/20 10:11:58;;;;;;;25.33;15.07;;;;;;;;;;4465053;32;20306;-54
2021/11/20 10:14:36;;;;;;;10.50;7.27;;;;;;;;;;4464655;32;20195;-53
2021/11/20 10:17:32;;;;;;;17.13;8.97;;;;;;;;;;4464905;32;20240;-54
2021/11/20 10:20:15;;;;;;;7.23;4.00;;;;;;;;;;4456408;32;20255;-54
2021/11/20 10:22:49;;;;;;;3.93;2.57;;;;;;;;;;4465428;32;20220;-54
2021/11/20 10:25:33;;;;;;;6.83;4.00;;;;;;;;;;4454044;32;20555;-53
2021/11/20 10:28:27;;;;;;;10.17;5.40;;;;;;;;;;4450754;32;20733;-53
2021/11/20 10:31:12;;;;;;;12.80;5.23;;;;;;;;;;4449071;32;20563;-54
2021/11/20 10:33:48;;;;;;;5.23;2.63;;;;;;;;;;4452790;32;20677;-54
2021/11/20 10:36:16;;;;;;;13.23;8.37;;;;;;;;;;4464712;32;20357;-53
2021/11/20 10:38:53;;;;;;;5.80;4.50;;;;;;;;;;4464237;32;20767;-55
2021/11/20 10:41:34;;;;;;;5.53;3.53;;;;;;;;;;4463591;32;20413;-53
2021/11/20 10:44:14;;;;;;;5.00;3.67;;;;;;;;;;4458350;32;20218;-54
2021/11/20 10:46:51;;;;;;;8.83;6.27;;;;;;;;;;4449051;32;20652;-53
2021/11/20 10:49:41;;;;;;;10.77;7.43;;;;;;;;;;4448894;32;20662;-54
2021/11/20 10:52:15;;;;;;;13.53;6.17;;;;;;;;;;4448811;32;20217;-54
2021/11/20 10:54:59;;;;;;;16.63;8.63;;;;;;;;;;4452886;32;20207;-54
2021/11/20 10:57:30;;;;;;;9.57;6.00;;;;;;;;;;4454306;32;20220;-53
2021/11/20 11:00:35;;;;;;;5.27;4.00;;;;;;;;;;4463978;32;20644;-53
2021/11/20 11:03:26;;;;;;;8.83;5.93;;;;;;;;;;4460735;32;20342;-53
2021/11/20 11:06:28;;;;;;;6.60;4.63;;;;;;;;;;4463685;32;20782;-53
2021/11/20 11:09:01;;;;;;;7.43;4.60;;;;;;;;;;4463933;32;20196;-53
2021/11/20 11:12:01;;;;;;;7.30;5.70;;;;;;;;;;4463602;32;20229;-54
2021/11/20 11:14:33;;;;;;;5.43;3.53;;;;;;;;;;4461540;32;20350;-53
2021/11/20 11:17:28;;;;;;;5.63;4.33;;;;;;;;;;4463267;32;20239;-53
2021/11/20 11:20:06;;;;;;;14.40;4.80;;;;;;;;;;4464006;32;20817;-54
2021/11/20 11:22:41;;;;;;;10.30;5.83;;;;;;;;;;4463030;32;20267;-52
2021/11/20 11:25:22;;;;;;;7.90;4.33;;;;;;;;;;4460896;32;20204;-53
2021/11/20 11:28:09;;;;;;;4.90;3.90;;;;;;;;;;4465224;32;20672;-53
2021/11/20 11:30:58;;;;;;;5.43;3.93;;;;;;;;;;4449806;32;20325;-54
2021/11/20 11:33:24;;;;;;;4.40;3.53;;;;;;;;;;4451255;32;20292;-53
2021/11/20 11:35:59;;;;;;;5.00;4.30;;;;;;;;;;4454429;32;20260;-53
2021/11/20 11:38:46;;;;;;;4.27;3.37;;;;;;;;;;4463776;32;20325;-53
2021/11/20 11:41:20;;;;;;;3.80;3.07;;;;;;;;;;4450910;32;20643;-52
2021/11/20 11:43:52;;;;;;;4.17;3.50;;;;;;;;;;4459080;32;20213;-52
2021/11/20 11:46:20;;;;;;;4.23;3.47;;;;;;;;;;4449661;32;20350;-52
2021/11/20 11:49:04;;;;;;;29.67;16.33;;;;;;;;;;4450919;32;20216;-52
2021/11/20 11:52:07;;;;;;;11.47;6.23;;;;;;;;;;4459243;32;20573;-53
2021/11/20 11:54:46;;;;;;;8.17;5.60;;;;;;;;;;4465955;32;20607;-53
2021/11/20 11:57:14;;;;;;;17.93;9.77;;;;;;;;;;4458462;32;20224;-53
2021/11/20 11:59:42;;;;;;;16.03;9.33;;;;;;;;;;4461025;32;20691;-53
2021/11/20 12:02:20;;;;;;;14.77;8.13;;;;;;;;;;4466360;32;20374;-53
2021/11/20 12:05:01;;;;;;;6.67;3.80;;;;;;;;;;4464094;32;20240;-53
2021/11/20 12:07:45;;;;;;;6.60;4.63;;;;;;;;;;4448727;32;20258;-53
2021/11/20 12:10:35;;;;;;;8.07;6.73;;;;;;;;;;4448114;32;20223;-53
2021/11/20 12:13:11;;;;;;;6.50;5.30;;;;;;;;;;4448047;32;20664;-53
2021/11/20 12:16:00;;;;;;;6.33;4.90;;;;;;;;;;4448314;32;20239;-53
2021/11/20 12:18:38;;;;;;;5.53;4.40;;;;;;;;;;4448348;32;20664;-53
2021/11/20 12:21:17;;;;;;;4.23;3.50;;;;;;;;;;4455817;32;20247;-53
2021/11/20 12:23:54;;;;;;;8.83;6.53;;;;;;;;;;4461314;32;20205;-52
2021/11/20 12:26:36;;;;;;;12.50;8.40;;;;;;;;;;4465380;32;20656;-53
2021/11/20 12:29:17;;;;;;;11.37;8.10;;;;;;;;;;4458198;32;20275;-54
2021/11/20 12:32:19;;;;;;;10.20;6.60;;;;;;;;;;4450802;32;20220;-53
2021/11/20 12:35:11;;;;;;;11.73;6.10;;;;;;;;;;4425254;32;20385;-53
2021/11/20 12:38:07;;;;;;;5.93;4.83;;;;;;;;;;4449776;32;20224;-54
2021/11/20 12:41:03;;;;;;;10.40;7.53;;;;;;;;;;4450311;32;20579;-53
2021/11/20 12:43:37;;;;;;;16.43;10.47;;;;;;;;;;4461138;32;20316;-53
2021/11/20 12:46:09;;;;;;;6.90;5.00;;;;;;;;;;4465757;32;20291;-53
2021/11/20 12:49:05;;;;;;;8.60;6.57;;;;;;;;;;4461014;32;20302;-53
2021/11/20 12:51:53;;;;;;;34.70;16.93;;;;;;;;;;4460734;32;20212;-54
2021/11/20 12:54:24;;;;;;;33.60;20.13;;;;;;;;;;4457373;32;20276;-53
2021/11/20 12:57:04;;;;;;;16.67;9.60;;;;;;;;;;4455903;32;20224;-53
2021/11/20 12:59:30;;;;;;;20.47;10.03;;;;;;;;;;4456777;32;20242;-53
2021/11/20 13:02:03;;;;;;;47.90;17.07;;;;;;;;;;4450064;32;20252;-53
2021/11/20 13:04:44;;;;;;;8.33;5.60;;;;;;;;;;4450244;32;20248;-53
2021/11/20 13:07:20;;;;;;;11.20;7.90;;;;;;;;;;4450224;32;20255;-53
2021/11/20 13:10:00;;;;;;;7.77;3.90;;;;;;;;;;4461247;32;20208;-53
2021/11/20 13:12:39;;;;;;;6.33;3.90;;;;;;;;;;4465458;32;20624;-53
2021/11/20 13:15:35;;;;;;;8.57;5.90;;;;;;;;;;4452973;32;20796;-53
2021/11/20 13:18:03;;;;;;;16.13;8.87;;;;;;;;;;4420325;32;20641;-54
2021/11/20 13:20:34;;;;;;;8.37;4.63;;;;;;;;;;4450145;32;20269;-53
2021/11/20 13:23:09;;;;;;;7.23;5.93;;;;;;;;;;4449409;32;20604;-54
2021/11/20 13:26:02;;;;;;;6.57;5.60;;;;;;;;;;4458671;32;20281;-53
2021/11/20 13:28:35;;;;;;;3.93;2.80;;;;;;;;;;4464041;32;20264;-53
2021/11/20 13:31:05;;;;;;;14.13;10.60;;;;;;;;;;4465729;32;20208;-53
2021/11/20 13:33:31;;;;;;;14.40;9.43;;;;;;;;;;4465363;32;20287;-53
2021/11/20 13:36:06;;;;;;;5.50;4.50;;;;;;;;;;4464111;32;20295;-53
2021/11/20 13:38:32;;;;;;;9.30;6.67;;;;;;;;;;4460772;32;20290;-53
2021/11/20 13:40:59;;;;;;;10.47;6.97;;;;;;;;;;4446648;32;20303;-53
2021/11/20 13:43:31;;;;;;;17.63;7.53;;;;;;;;;;4454287;32;20353;-54
2021/11/20 13:45:58;;;;;;;15.17;9.93;;;;;;;;;;4447541;32;20575;-53
2021/11/20 13:48:29;;;;;;;22.30;11.27;;;;;;;;;;4459747;32;20406;-54
2021/11/20 13:50:56;;;;;;;27.80;16.00;;;;;;;;;;4449197;32;20364;-54
2021/11/20 13:53:24;;;;;;;17.33;11.40;;;;;;;;;;4449389;32;20224;-53
2021/11/20 13:55:53;;;;;;;11.67;4.37;;;;;;;;;;4449445;32;20196;-53
2021/11/20 13:58:30;;;;;;;7.10;5.57;;;;;;;;;;4461259;32;20670;-53
2021/11/20 14:01:02;;;;;;;9.23;5.53;;;;;;;;;;4449471;32;20193;-53
2021/11/20 14:03:28;;;;;;;9.43;6.00;;;;;;;;;;4452099;32;20188;-54
2021/11/20 14:05:55;;;;;;;11.80;8.13;;;;;;;;;;4464679;32;20788;-53
2021/11/20 14:08:21;;;;;;;13.17;8.70;;;;;;;;;;4462470;32;20224;-52
2021/11/20 14:11:01;;;;;;;17.63;11.33;;;;;;;;;;4449083;32;20291;-53
2021/11/20 14:13:32;;;;;;;23.70;13.17;;;;;;;;;;4453853;32;20230;-53
2021/11/20 14:15:58;;;;;;;20.97;12.60;;;;;;;;;;4465036;32;20187;-53
2021/11/20 14:18:24;;;;;;;17.90;11.57;;;;;;;;;;4463241;32;20459;-53
2021/11/20 14:20:52;;;;;;;21.63;11.53;;;;;;;;;;4464833;32;20679;-52
2021/11/20 14:23:22;;;;;;;16.27;9.67;;;;;;;;;;4464293;32;20291;-55
2021/11/20 14:25:49;;;;;;;9.90;6.07;;;;;;;;;;4461543;32;20632;-53
2021/11/20 14:28:15;;;;;;;11.07;6.03;;;;;;;;;;4463388;32;20276;-55
2021/11/20 14:30:44;;;;;;;9.03;5.50;;;;;;;;;;4447662;32;20236;-53
2021/11/20 14:33:28;;;;;;;6.20;4.97;;;;;;;;;;4449233;32;20197;-53
2021/11/20 14:36:00;;;;;;;6.30;4.80;;;;;;;;;;4449085;32;20280;-53
2021/11/20 14:38:29;;;;;;;8.23;5.40;;;;;;;;;;4447382;32;20251;-53
2021/11/20 14:40:56;;;;;;;6.33;3.47;;;;;;;;;;4461617;32;20271;-53
2021/11/20 14:43:30;;;;;;;10.47;6.17;;;;;;;;;;4463926;32;20242;-53
2021/11/20 14:45:57;;;;;;;7.63;5.03;;;;;;;;;;4464790;32;20580;-54
2021/11/20 14:48:31;;;;;;;6.77;4.73;;;;;;;;;;4462986;32;20279;-53
2021/11/20 14:51:00;;;;;;;7.07;4.83;;;;;;;;;;4464736;32;20222;-52
2021/11/20 14:53:28;;;;;;;17.50;10.00;;;;;;;;;;4463991;32;20228;-53